Aérodrome :
LOGIN :

S'inscrire | Disclaimer

   EN    FR    IT 

 










Légende :    VFR   VFR Marginal   IFR   IFR Intensif   IFR Très Intensif
Visi : 
Plafond : 
>= 8 km
>= 3000ft
5 à 8 km
1000 à 3000 ft
1500m à 5 km
500 à 1000 ft
800 à 1500m
200 à 500 ft
< 800m
< 200 ft
Symboles :   Orages  Brouillard  Fortes neiges  Fortes précipitations  Vent > 20 kt
SIGMETs :   Divers  Orages  Givrage  Turbulence  Onde Orograph.  Cendres Volcan.







- Altitude de l'aérodrome : 13 ft
- Code IATA : CAG


LIEE - Cagliari Elmas

DERNIER METAR :
  • 151750Z 32017KT 9999 FEW030 26/14 Q1008

METARs EXPIRÉS :
  • 151720Z 32016KT 9999 FEW030 27/14 Q1008
  • 151650Z 32018KT 9999 FEW030 27/13 Q1008
  • 151620Z 32017KT 9999 FEW030 28/14 Q1007
  • 151550Z 32015KT 9999 FEW030 29/14 Q1007
  • 151520Z 33019KT 9999 FEW030 30/12 Q1007
  • 151450Z 33019KT 9999 FEW030 30/12 Q1007

TAF TAF LIEE
Valide du 15 à 18h jusqu'au 16 à 18h UTC


151700Z 1518/1618 33015G25KT 9999 FEW020
Pas de NOTAMs connus pour ce terrain.
1 SIGMET publié pour la FIR Roma (LIRR) :
 
Orages noyés dans la masse
LIRR SIGMET 7 VALID 151700/151900 LIIB
LIRR ROMA FIR EMBD TS FCST WI N4307 E00943 - N4115 E00943 - N4112 E01159 - N4111 E01338 - N4333 E01026 - N4334 E01022 - N4307 E00943 TOP ABV FL300 STNR WKN=



MET'MAP, la Météo Aéronautique d'un coup d'oeil ! - Copyright ORBIFLY Décembre 2007 - Disclaimer

ORBIFLY MET'MAP TEAM :

Programmation & Développement : Alexandra Zaïnal
Conception & Développement : Baudouin d'Aumeries
Co-Programmation & Développement : Marc-Olivier Méhu
Soutien technique & logistique : Manuel Goepfert

Contact : metmap@orbifly.com




SOURCES & CREDITS :

   NOAA